Main page
METAR-TAF:

METAR-TAF

Airports :

Pauls Valley Municipal Airport

Pauls Valley, Oklahoma, United States

latitude: 34-42-40N, longitude: 097-13-24W, elevation: 968 ft

Current weather observation

The report was made 29 minutes ago, at 19:35 UTC
Wind 3 mph from the South/Southeast
Temperature 88°F
Humidity 55%
Pressure 30.20 in. Hg
Visibility: 10 miles
Broken clouds at a height of 4000 ft
Broken clouds at a height of 4700 ft
Broken clouds at a height of 6000 ft

METAR: KPVJ 201935Z AUTO 16003KT 10SM BKN040 BKN047 BKN060 31/21 A3020 RMK AO2 T03110212

Time: 15:04 (20:04 UTC)


TAF: missing

Weather observations and forecasts of more than 4000 airports (METAR and TAF reports).

The available stations are represented by yellow and red dots on the map.

Hover mouse over dot to see the name of the station.

Then click to see weather observations and forecasts.

To change the map : click on the green buttons with a black cross to zoom in, on the green button with a dash to zoom out, or on the green arrows for adjacent maps.


METAR-TAF: